sensor_id;sensor_type;location;lat;lon;timestamp;P1;durP1;ratioP1;P2;durP2;ratioP2
75912;SDS011;64592;52.168;21.040;2023-11-19T00:01:27;33.22;;;14.82;;
75912;SDS011;64592;52.168;21.040;2023-11-19T00:06:29;37.78;;;15.68;;
75912;SDS011;64592;52.168;21.040;2023-11-19T00:11:32;38.00;;;16.02;;
75912;SDS011;64592;52.168;21.040;2023-11-19T00:16:34;33.78;;;15.98;;
75912;SDS011;64592;52.168;21.040;2023-11-19T00:21:35;35.13;;;15.00;;
75912;SDS011;64592;52.168;21.040;2023-11-19T00:26:38;31.55;;;14.15;;
75912;SDS011;64592;52.168;21.040;2023-11-19T00:31:40;48.00;;;16.95;;
75912;SDS011;64592;52.168;21.040;2023-11-19T00:36:42;37.83;;;15.70;;
75912;SDS011;64592;52.168;21.040;2023-11-19T00:41:46;41.67;;;17.77;;
75912;SDS011;64592;52.168;21.040;2023-11-19T00:46:47;44.10;;;17.30;;
75912;SDS011;64592;52.168;21.040;2023-11-19T00:51:49;37.58;;;17.13;;
75912;SDS011;64592;52.168;21.040;2023-11-19T00:56:52;36.28;;;16.05;;
75912;SDS011;64592;52.168;21.040;2023-11-19T01:01:54;40.75;;;15.85;;
75912;SDS011;64592;52.168;21.040;2023-11-19T01:06:56;38.60;;;14.07;;
75912;SDS011;64592;52.168;21.040;2023-11-19T01:11:59;35.30;;;15.02;;
75912;SDS011;64592;52.168;21.040;2023-11-19T01:17:01;30.25;;;14.98;;
75912;SDS011;64592;52.168;21.040;2023-11-19T01:22:03;31.13;;;15.05;;
75912;SDS011;64592;52.168;21.040;2023-11-19T01:27:06;37.58;;;14.65;;
75912;SDS011;64592;52.168;21.040;2023-11-19T01:32:08;38.30;;;15.07;;
75912;SDS011;64592;52.168;21.040;2023-11-19T01:37:10;30.42;;;13.90;;
75912;SDS011;64592;52.168;21.040;2023-11-19T01:42:15;34.35;;;15.68;;
75912;SDS011;64592;52.168;21.040;2023-11-19T01:47:17;40.63;;;16.70;;
75912;SDS011;64592;52.168;21.040;2023-11-19T01:52:20;40.75;;;15.82;;
75912;SDS011;64592;52.168;21.040;2023-11-19T01:57:23;33.83;;;15.15;;
75912;SDS011;64592;52.168;21.040;2023-11-19T02:02:25;36.08;;;15.45;;
75912;SDS011;64592;52.168;21.040;2023-11-19T02:07:27;35.60;;;14.13;;
75912;SDS011;64592;52.168;21.040;2023-11-19T02:12:31;29.30;;;14.18;;
75912;SDS011;64592;52.168;21.040;2023-11-19T02:17:33;28.27;;;12.75;;
75912;SDS011;64592;52.168;21.040;2023-11-19T02:22:37;28.88;;;14.30;;
75912;SDS011;64592;52.168;21.040;2023-11-19T02:32:58;32.03;;;14.02;;
75912;SDS011;64592;52.168;21.040;2023-11-19T02:38:05;31.77;;;12.43;;
75912;SDS011;64592;52.168;21.040;2023-11-19T02:43:08;35.03;;;14.57;;
75912;SDS011;64592;52.168;21.040;2023-11-19T02:48:10;38.03;;;14.55;;
75912;SDS011;64592;52.168;21.040;2023-11-19T02:53:11;35.58;;;14.95;;
75912;SDS011;64592;52.168;21.040;2023-11-19T02:58:14;36.83;;;14.15;;
75912;SDS011;64592;52.168;21.040;2023-11-19T03:03:23;34.15;;;14.32;;
75912;SDS011;64592;52.168;21.040;2023-11-19T03:08:28;29.23;;;11.95;;
75912;SDS011;64592;52.168;21.040;2023-11-19T03:13:31;29.88;;;10.75;;
75912;SDS011;64592;52.168;21.040;2023-11-19T03:18:33;33.97;;;12.40;;
75912;SDS011;64592;52.168;21.040;2023-11-19T03:23:35;41.00;;;14.45;;
75912;SDS011;64592;52.168;21.040;2023-11-19T03:28:41;33.75;;;13.88;;
75912;SDS011;64592;52.168;21.040;2023-11-19T03:33:42;35.28;;;13.43;;
75912;SDS011;64592;52.168;21.040;2023-11-19T03:38:44;34.92;;;12.30;;
75912;SDS011;64592;52.168;21.040;2023-11-19T03:43:48;31.33;;;12.65;;
75912;SDS011;64592;52.168;21.040;2023-11-19T03:48:49;33.28;;;13.13;;
75912;SDS011;64592;52.168;21.040;2023-11-19T03:53:51;35.60;;;14.70;;
75912;SDS011;64592;52.168;21.040;2023-11-19T03:58:55;26.30;;;11.50;;
75912;SDS011;64592;52.168;21.040;2023-11-19T04:03:56;30.80;;;12.25;;
75912;SDS011;64592;52.168;21.040;2023-11-19T04:08:59;29.95;;;11.82;;
75912;SDS011;64592;52.168;21.040;2023-11-19T04:14:02;31.50;;;12.35;;
75912;SDS011;64592;52.168;21.040;2023-11-19T04:19:03;29.90;;;12.75;;
75912;SDS011;64592;52.168;21.040;2023-11-19T04:24:05;32.50;;;12.85;;
75912;SDS011;64592;52.168;21.040;2023-11-19T04:29:09;35.97;;;14.35;;
75912;SDS011;64592;52.168;21.040;2023-11-19T04:34:11;38.38;;;14.35;;
75912;SDS011;64592;52.168;21.040;2023-11-19T04:39:13;36.45;;;14.27;;
75912;SDS011;64592;52.168;21.040;2023-11-19T04:44:17;28.88;;;12.27;;
75912;SDS011;64592;52.168;21.040;2023-11-19T04:49:18;36.65;;;13.43;;
75912;SDS011;64592;52.168;21.040;2023-11-19T04:54:20;34.20;;;12.85;;
75912;SDS011;64592;52.168;21.040;2023-11-19T04:59:24;34.25;;;14.07;;
75912;SDS011;64592;52.168;21.040;2023-11-19T05:04:27;41.42;;;13.00;;
75912;SDS011;64592;52.168;21.040;2023-11-19T05:09:29;28.63;;;11.32;;
75912;SDS011;64592;52.168;21.040;2023-11-19T05:14:33;30.30;;;11.05;;
75912;SDS011;64592;52.168;21.040;2023-11-19T05:19:35;34.40;;;12.55;;
75912;SDS011;64592;52.168;21.040;2023-11-19T05:24:36;27.05;;;11.85;;
75912;SDS011;64592;52.168;21.040;2023-11-19T05:29:41;26.23;;;11.05;;
75912;SDS011;64592;52.168;21.040;2023-11-19T05:34:43;29.90;;;11.10;;
75912;SDS011;64592;52.168;21.040;2023-11-19T05:39:44;31.63;;;12.23;;
75912;SDS011;64592;52.168;21.040;2023-11-19T05:44:47;27.35;;;10.88;;
75912;SDS011;64592;52.168;21.040;2023-11-19T05:49:49;21.33;;;9.32;;
75912;SDS011;64592;52.168;21.040;2023-11-19T05:54:50;27.45;;;10.80;;
75912;SDS011;64592;52.168;21.040;2023-11-19T05:59:53;28.88;;;10.93;;
75912;SDS011;64592;52.168;21.040;2023-11-19T06:04:55;29.95;;;11.23;;
75912;SDS011;64592;52.168;21.040;2023-11-19T06:09:57;29.33;;;12.32;;
75912;SDS011;64592;52.168;21.040;2023-11-19T06:15:00;21.00;;;9.15;;
75912;SDS011;64592;52.168;21.040;2023-11-19T06:20:01;25.52;;;10.07;;
75912;SDS011;64592;52.168;21.040;2023-11-19T06:25:05;18.75;;;8.23;;
75912;SDS011;64592;52.168;21.040;2023-11-19T06:30:09;20.13;;;8.13;;
75912;SDS011;64592;52.168;21.040;2023-11-19T06:35:12;18.55;;;8.85;;
75912;SDS011;64592;52.168;21.040;2023-11-19T06:40:15;19.10;;;8.48;;
75912;SDS011;64592;52.168;21.040;2023-11-19T06:45:18;13.20;;;6.43;;
75912;SDS011;64592;52.168;21.040;2023-11-19T06:50:20;24.10;;;8.20;;
75912;SDS011;64592;52.168;21.040;2023-11-19T06:55:22;15.75;;;7.97;;
75912;SDS011;64592;52.168;21.040;2023-11-19T07:00:25;13.75;;;6.05;;
75912;SDS011;64592;52.168;21.040;2023-11-19T07:05:27;15.98;;;6.90;;
75912;SDS011;64592;52.168;21.040;2023-11-19T07:10:28;12.88;;;6.57;;
75912;SDS011;64592;52.168;21.040;2023-11-19T07:15:31;15.52;;;6.90;;
75912;SDS011;64592;52.168;21.040;2023-11-19T07:20:33;14.40;;;7.03;;
75912;SDS011;64592;52.168;21.040;2023-11-19T07:25:35;12.45;;;6.22;;
75912;SDS011;64592;52.168;21.040;2023-11-19T07:30:39;15.82;;;7.32;;
75912;SDS011;64592;52.168;21.040;2023-11-19T07:35:40;16.85;;;7.03;;
75912;SDS011;64592;52.168;21.040;2023-11-19T07:40:42;16.67;;;8.10;;
75912;SDS011;64592;52.168;21.040;2023-11-19T07:45:45;15.02;;;6.53;;
75912;SDS011;64592;52.168;21.040;2023-11-19T07:50:47;19.10;;;9.00;;
75912;SDS011;64592;52.168;21.040;2023-11-19T07:55:50;14.63;;;7.07;;
75912;SDS011;64592;52.168;21.040;2023-11-19T08:00:53;14.23;;;7.45;;
75912;SDS011;64592;52.168;21.040;2023-11-19T08:05:55;14.77;;;6.93;;
75912;SDS011;64592;52.168;21.040;2023-11-19T08:10:57;13.80;;;7.45;;
75912;SDS011;64592;52.168;21.040;2023-11-19T08:16:00;14.75;;;7.55;;
75912;SDS011;64592;52.168;21.040;2023-11-19T08:21:02;17.15;;;7.75;;
75912;SDS011;64592;52.168;21.040;2023-11-19T08:26:05;14.57;;;7.18;;
75912;SDS011;64592;52.168;21.040;2023-11-19T08:31:08;16.20;;;7.78;;
75912;SDS011;64592;52.168;21.040;2023-11-19T08:36:14;16.38;;;7.88;;
75912;SDS011;64592;52.168;21.040;2023-11-19T08:41:17;15.00;;;6.97;;
75912;SDS011;64592;52.168;21.040;2023-11-19T08:46:20;16.30;;;7.95;;
75912;SDS011;64592;52.168;21.040;2023-11-19T08:51:22;12.27;;;7.10;;
75912;SDS011;64592;52.168;21.040;2023-11-19T08:56:24;14.52;;;6.63;;
75912;SDS011;64592;52.168;21.040;2023-11-19T09:01:33;15.02;;;6.70;;
75912;SDS011;64592;52.168;21.040;2023-11-19T09:06:35;17.40;;;7.60;;
75912;SDS011;64592;52.168;21.040;2023-11-19T09:11:37;14.00;;;7.22;;
75912;SDS011;64592;52.168;21.040;2023-11-19T09:16:40;17.52;;;7.05;;
75912;SDS011;64592;52.168;21.040;2023-11-19T09:21:41;16.02;;;7.35;;
75912;SDS011;64592;52.168;21.040;2023-11-19T09:26:43;14.88;;;8.55;;
75912;SDS011;64592;52.168;21.040;2023-11-19T09:31:46;16.58;;;7.28;;
75912;SDS011;64592;52.168;21.040;2023-11-19T09:36:48;17.30;;;7.60;;
75912;SDS011;64592;52.168;21.040;2023-11-19T09:41:49;16.88;;;7.82;;
75912;SDS011;64592;52.168;21.040;2023-11-19T09:46:52;17.73;;;9.10;;
75912;SDS011;64592;52.168;21.040;2023-11-19T09:51:54;17.48;;;8.85;;
75912;SDS011;64592;52.168;21.040;2023-11-19T09:56:56;20.38;;;9.07;;
75912;SDS011;64592;52.168;21.040;2023-11-19T10:02:04;21.92;;;8.73;;
75912;SDS011;64592;52.168;21.040;2023-11-19T10:07:06;20.08;;;8.40;;
75912;SDS011;64592;52.168;21.040;2023-11-19T10:12:08;16.40;;;10.10;;
75912;SDS011;64592;52.168;21.040;2023-11-19T10:17:11;18.02;;;8.73;;
75912;SDS011;64592;52.168;21.040;2023-11-19T10:22:12;17.75;;;8.88;;
75912;SDS011;64592;52.168;21.040;2023-11-19T10:27:16;19.65;;;8.50;;
75912;SDS011;64592;52.168;21.040;2023-11-19T10:32:20;17.23;;;8.70;;
75912;SDS011;64592;52.168;21.040;2023-11-19T10:37:27;26.52;;;8.73;;
75912;SDS011;64592;52.168;21.040;2023-11-19T10:42:30;17.75;;;9.52;;
75912;SDS011;64592;52.168;21.040;2023-11-19T10:47:33;13.38;;;8.10;;
75912;SDS011;64592;52.168;21.040;2023-11-19T10:52:37;19.63;;;9.43;;
75912;SDS011;64592;52.168;21.040;2023-11-19T10:57:39;20.63;;;8.85;;
75912;SDS011;64592;52.168;21.040;2023-11-19T11:02:46;17.20;;;9.25;;
75912;SDS011;64592;52.168;21.040;2023-11-19T11:07:55;15.77;;;8.65;;
75912;SDS011;64592;52.168;21.040;2023-11-19T11:12:57;16.70;;;9.38;;
75912;SDS011;64592;52.168;21.040;2023-11-19T11:18:02;16.33;;;8.77;;
75912;SDS011;64592;52.168;21.040;2023-11-19T11:23:09;20.75;;;8.93;;
75912;SDS011;64592;52.168;21.040;2023-11-19T11:28:35;19.02;;;8.65;;
75912;SDS011;64592;52.168;21.040;2023-11-19T11:33:54;14.32;;;7.38;;
75912;SDS011;64592;52.168;21.040;2023-11-19T11:39:07;20.55;;;8.05;;
75912;SDS011;64592;52.168;21.040;2023-11-19T11:44:09;16.63;;;8.50;;
75912;SDS011;64592;52.168;21.040;2023-11-19T11:49:12;18.45;;;8.05;;
75912;SDS011;64592;52.168;21.040;2023-11-19T11:54:25;21.48;;;9.73;;
75912;SDS011;64592;52.168;21.040;2023-11-19T11:59:31;17.85;;;8.50;;
75912;SDS011;64592;52.168;21.040;2023-11-19T12:04:38;18.13;;;8.50;;
75912;SDS011;64592;52.168;21.040;2023-11-19T12:09:41;19.92;;;9.45;;
75912;SDS011;64592;52.168;21.040;2023-11-19T12:15:00;17.48;;;8.23;;
75912;SDS011;64592;52.168;21.040;2023-11-19T12:20:07;23.33;;;9.05;;
75912;SDS011;64592;52.168;21.040;2023-11-19T12:25:09;16.95;;;8.65;;
75912;SDS011;64592;52.168;21.040;2023-11-19T12:30:12;19.88;;;9.98;;
75912;SDS011;64592;52.168;21.040;2023-11-19T12:35:19;21.92;;;9.65;;
75912;SDS011;64592;52.168;21.040;2023-11-19T12:40:21;16.75;;;8.70;;
75912;SDS011;64592;52.168;21.040;2023-11-19T12:45:23;16.92;;;8.55;;
75912;SDS011;64592;52.168;21.040;2023-11-19T12:50:27;17.10;;;8.57;;
75912;SDS011;64592;52.168;21.040;2023-11-19T12:55:29;21.80;;;10.18;;
75912;SDS011;64592;52.168;21.040;2023-11-19T13:00:32;21.08;;;9.40;;
75912;SDS011;64592;52.168;21.040;2023-11-19T13:05:36;20.38;;;8.35;;
75912;SDS011;64592;52.168;21.040;2023-11-19T13:10:49;20.38;;;8.85;;
75912;SDS011;64592;52.168;21.040;2023-11-19T13:15:52;19.52;;;9.25;;
75912;SDS011;64592;52.168;21.040;2023-11-19T13:20:55;15.27;;;7.55;;
75912;SDS011;64592;52.168;21.040;2023-11-19T13:25:57;18.67;;;9.25;;
75912;SDS011;64592;52.168;21.040;2023-11-19T13:30:58;18.48;;;8.80;;
75912;SDS011;64592;52.168;21.040;2023-11-19T13:36:02;17.73;;;8.93;;
75912;SDS011;64592;52.168;21.040;2023-11-19T13:41:06;17.70;;;8.23;;
75912;SDS011;64592;52.168;21.040;2023-11-19T13:46:09;12.75;;;5.93;;
75912;SDS011;64592;52.168;21.040;2023-11-19T13:51:12;24.55;;;9.60;;
75912;SDS011;64592;52.168;21.040;2023-11-19T13:56:14;18.95;;;8.68;;
75912;SDS011;64592;52.168;21.040;2023-11-19T14:01:15;17.70;;;8.18;;
75912;SDS011;64592;52.168;21.040;2023-11-19T14:06:19;20.02;;;8.70;;
75912;SDS011;64592;52.168;21.040;2023-11-19T14:11:20;20.17;;;7.88;;
75912;SDS011;64592;52.168;21.040;2023-11-19T14:16:22;25.15;;;10.07;;
75912;SDS011;64592;52.168;21.040;2023-11-19T14:21:29;19.08;;;8.73;;
75912;SDS011;64592;52.168;21.040;2023-11-19T14:26:30;14.63;;;8.07;;
75912;SDS011;64592;52.168;21.040;2023-11-19T14:31:32;20.75;;;10.98;;
75912;SDS011;64592;52.168;21.040;2023-11-19T14:36:35;23.10;;;10.65;;
75912;SDS011;64592;52.168;21.040;2023-11-19T14:41:36;22.70;;;10.18;;
75912;SDS011;64592;52.168;21.040;2023-11-19T14:46:38;26.48;;;11.38;;
75912;SDS011;64592;52.168;21.040;2023-11-19T14:51:41;17.08;;;9.48;;
75912;SDS011;64592;52.168;21.040;2023-11-19T14:56:43;19.40;;;9.38;;
75912;SDS011;64592;52.168;21.040;2023-11-19T15:01:45;18.42;;;8.88;;
75912;SDS011;64592;52.168;21.040;2023-11-19T15:06:48;24.48;;;11.88;;
75912;SDS011;64592;52.168;21.040;2023-11-19T15:11:50;28.38;;;10.93;;
75912;SDS011;64592;52.168;21.040;2023-11-19T15:16:51;21.05;;;10.52;;
75912;SDS011;64592;52.168;21.040;2023-11-19T15:21:54;22.52;;;10.45;;
75912;SDS011;64592;52.168;21.040;2023-11-19T15:26:56;21.70;;;9.90;;
75912;SDS011;64592;52.168;21.040;2023-11-19T15:31:58;17.48;;;7.80;;
75912;SDS011;64592;52.168;21.040;2023-11-19T15:37:01;19.48;;;11.07;;
75912;SDS011;64592;52.168;21.040;2023-11-19T15:42:04;26.77;;;11.27;;
75912;SDS011;64592;52.168;21.040;2023-11-19T15:47:05;22.88;;;11.23;;
75912;SDS011;64592;52.168;21.040;2023-11-19T15:52:08;26.45;;;11.70;;
75912;SDS011;64592;52.168;21.040;2023-11-19T15:57:10;21.13;;;9.43;;
75912;SDS011;64592;52.168;21.040;2023-11-19T16:02:12;21.48;;;10.82;;
75912;SDS011;64592;52.168;21.040;2023-11-19T16:07:15;22.92;;;11.15;;
75912;SDS011;64592;52.168;21.040;2023-11-19T16:12:16;27.05;;;11.68;;
75912;SDS011;64592;52.168;21.040;2023-11-19T16:17:18;22.20;;;11.25;;
75912;SDS011;64592;52.168;21.040;2023-11-19T16:22:22;22.73;;;10.45;;
75912;SDS011;64592;52.168;21.040;2023-11-19T16:27:25;23.92;;;9.40;;
75912;SDS011;64592;52.168;21.040;2023-11-19T16:32:27;23.52;;;11.00;;
75912;SDS011;64592;52.168;21.040;2023-11-19T16:37:29;24.52;;;12.20;;
75912;SDS011;64592;52.168;21.040;2023-11-19T16:42:31;24.20;;;10.32;;
75912;SDS011;64592;52.168;21.040;2023-11-19T16:47:33;21.00;;;9.43;;
75912;SDS011;64592;52.168;21.040;2023-11-19T16:52:36;25.58;;;11.90;;
75912;SDS011;64592;52.168;21.040;2023-11-19T16:57:38;24.13;;;10.32;;
75912;SDS011;64592;52.168;21.040;2023-11-19T17:02:40;25.08;;;11.57;;
75912;SDS011;64592;52.168;21.040;2023-11-19T17:07:46;25.65;;;12.50;;
75912;SDS011;64592;52.168;21.040;2023-11-19T17:12:47;22.33;;;11.15;;
75912;SDS011;64592;52.168;21.040;2023-11-19T17:17:49;19.83;;;9.07;;
75912;SDS011;64592;52.168;21.040;2023-11-19T17:22:52;23.73;;;9.77;;
75912;SDS011;64592;52.168;21.040;2023-11-19T17:27:55;20.75;;;10.35;;
75912;SDS011;64592;52.168;21.040;2023-11-19T17:32:57;17.65;;;8.68;;
75912;SDS011;64592;52.168;21.040;2023-11-19T17:38:00;20.17;;;9.68;;
75912;SDS011;64592;52.168;21.040;2023-11-19T17:43:02;17.60;;;8.60;;
75912;SDS011;64592;52.168;21.040;2023-11-19T17:48:04;22.48;;;9.35;;
75912;SDS011;64592;52.168;21.040;2023-11-19T17:53:10;19.50;;;9.80;;
75912;SDS011;64592;52.168;21.040;2023-11-19T17:58:12;20.55;;;9.75;;
75912;SDS011;64592;52.168;21.040;2023-11-19T18:03:14;17.25;;;9.50;;
75912;SDS011;64592;52.168;21.040;2023-11-19T18:08:18;15.88;;;9.30;;
75912;SDS011;64592;52.168;21.040;2023-11-19T18:13:22;18.50;;;9.45;;
75912;SDS011;64592;52.168;21.040;2023-11-19T18:18:24;20.20;;;9.73;;
75912;SDS011;64592;52.168;21.040;2023-11-19T18:23:28;20.08;;;9.50;;
75912;SDS011;64592;52.168;21.040;2023-11-19T18:28:30;17.55;;;9.10;;
75912;SDS011;64592;52.168;21.040;2023-11-19T18:33:31;22.63;;;10.90;;
75912;SDS011;64592;52.168;21.040;2023-11-19T18:38:34;14.82;;;8.02;;
75912;SDS011;64592;52.168;21.040;2023-11-19T18:43:39;18.10;;;8.18;;
75912;SDS011;64592;52.168;21.040;2023-11-19T18:48:42;21.48;;;10.32;;
75912;SDS011;64592;52.168;21.040;2023-11-19T18:53:45;17.75;;;8.02;;
75912;SDS011;64592;52.168;21.040;2023-11-19T18:58:47;19.10;;;8.75;;
75912;SDS011;64592;52.168;21.040;2023-11-19T19:03:49;20.17;;;9.13;;
75912;SDS011;64592;52.168;21.040;2023-11-19T19:08:52;17.02;;;7.57;;
75912;SDS011;64592;52.168;21.040;2023-11-19T19:13:53;17.83;;;9.05;;
75912;SDS011;64592;52.168;21.040;2023-11-19T19:18:55;17.88;;;9.18;;
75912;SDS011;64592;52.168;21.040;2023-11-19T19:23:58;20.17;;;10.65;;
75912;SDS011;64592;52.168;21.040;2023-11-19T19:29:03;20.05;;;10.15;;
75912;SDS011;64592;52.168;21.040;2023-11-19T19:34:05;19.38;;;8.55;;
75912;SDS011;64592;52.168;21.040;2023-11-19T19:39:08;17.35;;;9.23;;
75912;SDS011;64592;52.168;21.040;2023-11-19T19:44:14;17.95;;;8.57;;
75912;SDS011;64592;52.168;21.040;2023-11-19T19:49:15;17.88;;;8.95;;
75912;SDS011;64592;52.168;21.040;2023-11-19T19:54:18;18.48;;;9.77;;
75912;SDS011;64592;52.168;21.040;2023-11-19T19:59:20;18.35;;;9.77;;
75912;SDS011;64592;52.168;21.040;2023-11-19T20:04:22;15.90;;;8.75;;
75912;SDS011;64592;52.168;21.040;2023-11-19T20:09:25;20.17;;;9.90;;
75912;SDS011;64592;52.168;21.040;2023-11-19T20:14:26;11.18;;;6.72;;
75912;SDS011;64592;52.168;21.040;2023-11-19T20:19:28;17.48;;;8.57;;
75912;SDS011;64592;52.168;21.040;2023-11-19T20:24:31;14.07;;;7.68;;
75912;SDS011;64592;52.168;21.040;2023-11-19T20:29:33;13.85;;;7.53;;
75912;SDS011;64592;52.168;21.040;2023-11-19T20:34:35;17.45;;;9.30;;
75912;SDS011;64592;52.168;21.040;2023-11-19T20:39:38;16.08;;;7.95;;
75912;SDS011;64592;52.168;21.040;2023-11-19T20:44:39;14.60;;;8.25;;
75912;SDS011;64592;52.168;21.040;2023-11-19T20:49:41;17.63;;;8.45;;
75912;SDS011;64592;52.168;21.040;2023-11-19T20:54:44;15.65;;;8.45;;
75912;SDS011;64592;52.168;21.040;2023-11-19T20:59:47;19.83;;;8.50;;
75912;SDS011;64592;52.168;21.040;2023-11-19T21:04:48;19.65;;;8.60;;
75912;SDS011;64592;52.168;21.040;2023-11-19T21:09:51;12.35;;;8.23;;
75912;SDS011;64592;52.168;21.040;2023-11-19T21:14:54;11.18;;;5.30;;
75912;SDS011;64592;52.168;21.040;2023-11-19T21:19:56;16.30;;;7.93;;
75912;SDS011;64592;52.168;21.040;2023-11-19T21:25:00;15.07;;;8.25;;
75912;SDS011;64592;52.168;21.040;2023-11-19T21:30:02;17.08;;;8.45;;
75912;SDS011;64592;52.168;21.040;2023-11-19T21:35:05;15.45;;;8.30;;
75912;SDS011;64592;52.168;21.040;2023-11-19T21:40:10;14.68;;;6.97;;
75912;SDS011;64592;52.168;21.040;2023-11-19T21:45:12;15.07;;;6.63;;
75912;SDS011;64592;52.168;21.040;2023-11-19T21:50:14;20.50;;;8.80;;
75912;SDS011;64592;52.168;21.040;2023-11-19T21:55:17;18.80;;;8.43;;
75912;SDS011;64592;52.168;21.040;2023-11-19T22:00:19;14.70;;;8.18;;
75912;SDS011;64592;52.168;21.040;2023-11-19T22:05:21;12.07;;;7.20;;
75912;SDS011;64592;52.168;21.040;2023-11-19T22:10:23;15.30;;;7.13;;
75912;SDS011;64592;52.168;21.040;2023-11-19T22:15:25;15.95;;;8.32;;
75912;SDS011;64592;52.168;21.040;2023-11-19T22:20:27;17.60;;;8.52;;
75912;SDS011;64592;52.168;21.040;2023-11-19T22:25:30;15.88;;;7.55;;
75912;SDS011;64592;52.168;21.040;2023-11-19T22:30:32;15.60;;;8.00;;
75912;SDS011;64592;52.168;21.040;2023-11-19T22:35:34;12.75;;;6.68;;
75912;SDS011;64592;52.168;21.040;2023-11-19T22:40:37;14.07;;;6.43;;
75912;SDS011;64592;52.168;21.040;2023-11-19T22:45:39;16.65;;;7.57;;
75912;SDS011;64592;52.168;21.040;2023-11-19T22:50:41;15.55;;;7.97;;
75912;SDS011;64592;52.168;21.040;2023-11-19T22:55:44;14.60;;;7.18;;
75912;SDS011;64592;52.168;21.040;2023-11-19T23:00:46;13.48;;;6.57;;
75912;SDS011;64592;52.168;21.040;2023-11-19T23:05:48;17.95;;;7.95;;
75912;SDS011;64592;52.168;21.040;2023-11-19T23:10:51;14.68;;;7.13;;
75912;SDS011;64592;52.168;21.040;2023-11-19T23:15:53;13.95;;;7.72;;
75912;SDS011;64592;52.168;21.040;2023-11-19T23:20:55;11.88;;;6.70;;
75912;SDS011;64592;52.168;21.040;2023-11-19T23:25:58;15.73;;;7.10;;
75912;SDS011;64592;52.168;21.040;2023-11-19T23:30:59;13.13;;;7.75;;
75912;SDS011;64592;52.168;21.040;2023-11-19T23:36:01;13.02;;;6.97;;
75912;SDS011;64592;52.168;21.040;2023-11-19T23:41:06;15.10;;;7.22;;
75912;SDS011;64592;52.168;21.040;2023-11-19T23:46:08;16.30;;;7.50;;
75912;SDS011;64592;52.168;21.040;2023-11-19T23:51:11;12.68;;;6.50;;
75912;SDS011;64592;52.168;21.040;2023-11-19T23:56:14;14.85;;;7.35;;
